Time;durP1;ratioP1;P1;durP2;ratioP2;P2;SDS_P1;SDS_P2;PMS_P1;PMS_P2;Temp;Humidity;BMP_temperature;BMP_pressure;BME280_temperature;BME280_humidity;BME280_pressure;Samples;Min_cycle;Max_cycle;Signal;HPM_P1;HPM_P2
2021/09/02 00:00:37;;;;;;;12.52;7.50;;;13.90;88.60;;;;;;5035703;28;20180;-87
2021/09/02 00:03:03;;;;;;;9.45;6.32;;;13.90;88.30;;;;;;5035735;28;20202;-87
2021/09/02 00:05:29;;;;;;;13.20;7.63;;;14.00;88.20;;;;;;5035769;28;20261;-87
2021/09/02 00:07:55;;;;;;;19.00;7.23;;;14.00;87.80;;;;;;5053727;28;20239;-87
2021/09/02 00:10:21;;;;;;;19.33;7.20;;;13.80;88.60;;;;;;5036107;28;20176;-87
2021/09/02 00:12:46;;;;;;;15.03;6.77;;;13.80;88.60;;;;;;5036515;28;20203;-86
2021/09/02 00:15:12;;;;;;;15.50;6.23;;;13.70;88.60;;;;;;5035621;28;20184;-86
2021/09/02 00:17:38;;;;;;;14.65;6.72;;;13.70;88.50;;;;;;5035755;28;20237;-86
2021/09/02 00:20:05;;;;;;;11.80;6.60;;;13.70;88.10;;;;;;5035725;28;20184;-86
2021/09/02 00:22:30;;;;;;;14.23;6.57;;;13.60;88.30;;;;;;5035425;28;20243;-86
2021/09/02 00:24:56;;;;;;;12.93;6.90;;;13.60;88.30;;;;;;5035522;28;20207;-86
2021/09/02 00:27:22;;;;;;;17.90;8.37;;;13.70;88.40;;;;;;5035809;28;20243;-86
2021/09/02 00:29:47;;;;;;;16.73;7.13;;;13.60;88.20;;;;;;5035743;28;20172;-86
2021/09/02 00:32:15;;;;;;;18.23;8.17;;;13.60;88.20;;;;;;5035303;28;20242;-86
2021/09/02 00:34:41;;;;;;;13.70;6.53;;;13.60;88.40;;;;;;5035396;28;20200;-86
2021/09/02 00:37:06;;;;;;;12.53;6.93;;;13.60;88.40;;;;;;5035076;28;20236;-86
2021/09/02 00:39:32;;;;;;;15.97;7.17;;;13.60;88.50;;;;;;5053329;28;20199;-86
2021/09/02 00:41:58;;;;;;;20.30;8.40;;;13.60;88.60;;;;;;5053175;28;20253;-86
2021/09/02 00:44:44;;;;;;;14.87;7.70;;;13.60;88.80;;;;;;5035211;28;20180;-86
2021/09/02 00:47:11;;;;;;;22.17;8.00;;;13.60;89.20;;;;;;5035392;28;20296;-86
2021/09/02 00:49:40;;;;;;;13.30;6.97;;;13.70;89.30;;;;;;5052972;28;20172;-86
2021/09/02 00:52:09;;;;;;;15.90;7.13;;;13.70;89.50;;;;;;5052934;28;20211;-86
2021/09/02 00:54:35;;;;;;;18.73;7.63;;;13.80;89.40;;;;;;5053337;28;20179;-86
2021/09/02 00:57:01;;;;;;;11.67;6.70;;;13.80;89.60;;;;;;5035398;28;20543;-86
2021/09/02 00:59:27;;;;;;;12.47;6.03;;;13.80;89.40;;;;;;5053575;28;20180;-86
2021/09/02 01:01:54;;;;;;;13.00;6.60;;;13.90;89.10;;;;;;5053095;28;20196;-86
2021/09/02 01:04:21;;;;;;;12.73;7.27;;;13.80;88.80;;;;;;5035219;28;20177;-86
2021/09/02 01:06:49;;;;;;;17.20;7.47;;;13.80;88.80;;;;;;5035123;28;20284;-86
2021/09/02 01:09:15;;;;;;;9.97;6.20;;;13.80;88.60;;;;;;5036616;28;20271;-86
2021/09/02 01:11:40;;;;;;;15.43;6.77;;;13.80;88.70;;;;;;5038801;28;20196;-86
2021/09/02 01:14:06;;;;;;;14.07;7.70;;;13.70;88.90;;;;;;5038817;28;20229;-86
2021/09/02 01:16:32;;;;;;;13.13;7.40;;;13.70;89.30;;;;;;5056926;28;20257;-86
2021/09/02 01:18:58;;;;;;;16.97;7.40;;;13.80;89.20;;;;;;5038605;28;20184;-86
2021/09/02 01:21:23;;;;;;;13.13;6.83;;;13.80;88.90;;;;;;5038604;28;20199;-87
2021/09/02 01:23:49;;;;;;;11.67;6.33;;;13.80;88.70;;;;;;5038693;28;20219;-86
2021/09/02 01:26:20;;;;;;;12.23;6.43;;;13.80;88.30;;;;;;5056237;28;20183;-86
2021/09/02 01:28:47;;;;;;;12.30;6.63;;;13.80;87.90;;;;;;5056495;28;20203;-86
2021/09/02 01:31:19;;;;;;;14.07;6.90;;;13.80;87.80;;;;;;5056063;28;20188;-86
2021/09/02 01:33:48;;;;;;;14.63;6.93;;;13.80;87.60;;;;;;5038338;28;20172;-86
2021/09/02 01:36:14;;;;;;;13.67;6.97;;;13.70;87.80;;;;;;5037880;28;20178;-86
2021/09/02 01:38:40;;;;;;;19.07;8.33;;;13.70;87.90;;;;;;5038168;28;20278;-86
2021/09/02 01:41:05;;;;;;;16.03;7.20;;;13.70;87.70;;;;;;5056042;28;20203;-86
2021/09/02 01:43:31;;;;;;;17.67;7.60;;;13.70;87.60;;;;;;5038917;28;20640;-86
2021/09/02 01:45:57;;;;;;;18.53;8.33;;;13.60;87.70;;;;;;5038140;28;20535;-86
2021/09/02 01:48:23;;;;;;;26.63;9.43;;;13.70;88.30;;;;;;5055814;28;20214;-86
2021/09/02 01:50:48;;;;;;;20.00;9.20;;;13.60;89.50;;;;;;5055814;28;20175;-86
2021/09/02 01:53:18;;;;;;;28.57;10.90;;;13.50;90.10;;;;;;5038039;28;20168;-86
2021/09/02 01:55:46;;;;;;;19.47;10.27;;;13.60;90.40;;;;;;5055885;28;20168;-86
2021/09/02 01:58:12;;;;;;;23.97;10.13;;;13.50;90.50;;;;;;5055895;28;20293;-86
2021/09/02 02:00:38;;;;;;;24.10;9.70;;;13.50;90.50;;;;;;5038104;28;20199;-86
2021/09/02 02:03:05;;;;;;;15.43;9.47;;;13.50;90.50;;;;;;5037930;28;20178;-86
2021/09/02 02:05:31;;;;;;;19.07;8.67;;;13.50;90.20;;;;;;5055791;28;20180;-86
2021/09/02 02:07:57;;;;;;;17.00;9.07;;;13.60;90.00;;;;;;5037664;28;20213;-86
2021/09/02 02:10:27;;;;;;;22.70;9.53;;;13.50;89.80;;;;;;5037580;28;20211;-86
2021/09/02 02:12:54;;;;;;;20.93;9.80;;;13.50;89.90;;;;;;5055618;28;20218;-86
2021/09/02 02:15:20;;;;;;;14.87;8.90;;;13.40;89.90;;;;;;5055474;28;20176;-86
2021/09/02 02:17:45;;;;;;;16.83;9.60;;;13.40;89.90;;;;;;5037623;28;20605;-86
2021/09/02 02:20:12;;;;;;;21.07;9.37;;;13.30;90.00;;;;;;5037393;28;20180;-86
2021/09/02 02:22:39;;;;;;;16.27;8.57;;;13.40;90.00;;;;;;5055343;28;20563;-86
2021/09/02 02:25:07;;;;;;;17.00;7.80;;;13.40;90.10;;;;;;5037184;28;20240;-86
2021/09/02 02:27:32;;;;;;;17.93;8.40;;;13.50;89.90;;;;;;5054910;28;20235;-86
2021/09/02 02:29:58;;;;;;;20.03;9.70;;;13.50;89.70;;;;;;5037328;28;20255;-86
2021/09/02 02:32:24;;;;;;;21.60;9.13;;;13.40;89.90;;;;;;5037185;28;20207;-86
2021/09/02 02:34:49;;;;;;;20.07;10.57;;;13.50;90.40;;;;;;5055169;28;20179;-86
2021/09/02 02:37:15;;;;;;;19.87;10.43;;;13.40;90.60;;;;;;5037153;28;20238;-86
2021/09/02 02:39:41;;;;;;;25.53;11.23;;;13.50;90.90;;;;;;5054888;28;20172;-86
2021/09/02 02:42:08;;;;;;;22.33;11.90;;;13.50;91.20;;;;;;5036943;28;20231;-86
2021/09/02 02:44:35;;;;;;;19.23;10.67;;;13.40;91.40;;;;;;5037062;28;20648;-86
2021/09/02 02:47:01;;;;;;;19.60;11.03;;;13.40;91.40;;;;;;5037120;28;20592;-86
2021/09/02 02:49:26;;;;;;;28.23;11.43;;;13.40;91.20;;;;;;5036946;28;20186;-86
2021/09/02 02:51:52;;;;;;;24.07;12.23;;;13.30;91.30;;;;;;5036672;28;20220;-86
2021/09/02 02:54:18;;;;;;;19.47;10.23;;;13.30;91.40;;;;;;5036778;28;20267;-86
2021/09/02 02:56:44;;;;;;;21.30;11.50;;;13.30;91.30;;;;;;5054455;28;20176;-86
2021/09/02 02:59:10;;;;;;;17.70;10.00;;;13.30;91.20;;;;;;5036641;28;20572;-86
2021/09/02 03:01:37;;;;;;;28.70;10.83;;;13.30;91.10;;;;;;5054397;28;20276;-86
2021/09/02 03:04:03;;;;;;;17.73;9.73;;;13.30;90.80;;;;;;5036716;28;20317;-86
2021/09/02 03:06:28;;;;;;;19.00;10.23;;;13.30;90.70;;;;;;5054281;28;20671;-87
2021/09/02 03:08:54;;;;;;;24.63;11.87;;;13.20;90.80;;;;;;5054174;28;20227;-86
2021/09/02 03:11:20;;;;;;;35.33;11.87;;;13.20;91.10;;;;;;5036061;28;20199;-88
2021/09/02 03:13:45;;;;;;;31.63;12.70;;;13.20;91.30;;;;;;5053839;28;20167;-88
2021/09/02 03:16:11;;;;;;;25.77;12.57;;;13.20;91.60;;;;;;5036051;28;20222;-86
2021/09/02 03:18:37;;;;;;;27.90;13.47;;;13.20;91.80;;;;;;5036303;28;20195;-86
2021/09/02 03:21:03;;;;;;;30.30;13.87;;;13.30;91.80;;;;;;5036297;28;20192;-86
2021/09/02 03:23:28;;;;;;;29.57;14.30;;;13.30;91.80;;;;;;5054047;28;20172;-86
2021/09/02 03:25:54;;;;;;;24.10;12.57;;;13.40;91.90;;;;;;5053930;28;20172;-86
2021/09/02 03:28:20;;;;;;;27.47;13.43;;;13.40;91.80;;;;;;5036162;28;20253;-86
2021/09/02 03:30:45;;;;;;;27.50;13.33;;;13.50;91.70;;;;;;5035756;28;20222;-86
2021/09/02 03:33:11;;;;;;;25.03;12.97;;;13.50;91.70;;;;;;5053053;28;20176;-86
2021/09/02 03:35:36;;;;;;;28.43;12.47;;;13.50;91.60;;;;;;5053703;28;20310;-86
2021/09/02 03:38:03;;;;;;;20.30;12.07;;;13.60;91.50;;;;;;5035859;28;20180;-86
2021/09/02 03:40:29;;;;;;;24.33;13.30;;;13.60;91.50;;;;;;5053577;28;20176;-86
2021/09/02 03:42:54;;;;;;;32.00;14.53;;;13.70;91.50;;;;;;5036456;28;20210;-86
2021/09/02 03:45:20;;;;;;;25.37;13.43;;;13.60;91.60;;;;;;5035828;28;20257;-86
2021/09/02 03:47:49;;;;;;;30.93;14.80;;;13.70;91.60;;;;;;5035758;28;20196;-86
2021/09/02 03:50:16;;;;;;;30.37;15.30;;;13.60;91.70;;;;;;5035855;28;20267;-86
2021/09/02 03:52:42;;;;;;;26.77;14.27;;;13.70;91.90;;;;;;5035687;28;20211;-86
2021/09/02 03:55:08;;;;;;;31.73;15.13;;;13.70;91.90;;;;;;5035638;28;20640;-86
2021/09/02 03:57:34;;;;;;;28.93;15.73;;;13.70;91.80;;;;;;5035529;28;20651;-86
2021/09/02 04:00:00;;;;;;;27.83;13.70;;;13.70;91.80;;;;;;5035535;28;20187;-86
2021/09/02 04:02:26;;;;;;;27.23;13.27;;;13.80;91.80;;;;;;5035327;28;20282;-86
2021/09/02 04:04:51;;;;;;;28.07;14.03;;;13.80;91.70;;;;;;5053517;28;20194;-86
2021/09/02 04:07:17;;;;;;;31.30;14.67;;;13.80;91.60;;;;;;5035792;28;20211;-86
2021/09/02 04:09:42;;;;;;;25.37;15.23;;;13.80;91.50;;;;;;5035654;28;20184;-86
2021/09/02 04:12:08;;;;;;;24.07;13.73;;;13.80;91.50;;;;;;5053053;28;20223;-86
2021/09/02 04:14:34;;;;;;;33.97;16.90;;;13.90;91.40;;;;;;5035425;28;20176;-86
2021/09/02 04:16:59;;;;;;;34.63;15.40;;;13.80;91.40;;;;;;5035308;28;20184;-86
2021/09/02 04:19:25;;;;;;;32.87;15.77;;;13.80;91.60;;;;;;5035346;28;20218;-86
2021/09/02 04:21:51;;;;;;;29.80;15.60;;;13.70;91.60;;;;;;5035338;28;20207;-86
2021/09/02 04:24:17;;;;;;;32.27;15.53;;;13.80;91.70;;;;;;5053088;28;20183;-86
2021/09/02 04:26:43;;;;;;;29.27;15.50;;;13.90;91.60;;;;;;5035114;28;20270;-86
2021/09/02 04:29:09;;;;;;;25.63;14.83;;;13.90;91.50;;;;;;5035461;28;20651;-87
2021/09/02 04:31:35;;;;;;;31.37;14.73;;;14.00;91.40;;;;;;5035925;28;20593;-86
2021/09/02 04:34:00;;;;;;;32.83;17.60;;;13.80;91.30;;;;;;5052934;28;20230;-86
2021/09/02 04:36:26;;;;;;;28.87;17.20;;;13.80;91.40;;;;;;5035094;28;20230;-86
2021/09/02 04:38:52;;;;;;;32.13;16.40;;;13.80;91.50;;;;;;5052956;28;20172;-86
2021/09/02 04:41:17;;;;;;;31.20;16.00;;;13.80;91.50;;;;;;5035243;28;20208;-86
2021/09/02 04:43:43;;;;;;;33.17;16.53;;;13.90;91.50;;;;;;5037459;28;20711;-86
2021/09/02 04:46:11;;;;;;;37.80;16.73;;;14.00;91.40;;;;;;5038948;28;20670;-86
2021/09/02 04:48:37;;;;;;;30.47;15.47;;;14.00;91.30;;;;;;5038994;28;20564;-86
2021/09/02 04:51:03;;;;;;;26.67;14.33;;;14.00;91.30;;;;;;5038933;28;20200;-86
2021/09/02 04:53:29;;;;;;;31.73;16.60;;;14.00;91.30;;;;;;5038852;28;20176;-86
2021/09/02 04:55:54;;;;;;;27.33;15.63;;;14.10;91.10;;;;;;5056559;28;20651;-86
2021/09/02 04:58:20;;;;;;;28.30;15.80;;;14.10;91.30;;;;;;5039015;28;20617;-86
2021/09/02 05:00:46;;;;;;;34.03;15.57;;;14.10;91.30;;;;;;5056452;28;20176;-86
2021/09/02 05:03:12;;;;;;;32.10;16.40;;;14.10;91.30;;;;;;5038989;28;20263;-86
2021/09/02 05:05:37;;;;;;;29.17;15.77;;;14.10;91.20;;;;;;5038675;28;20183;-86
2021/09/02 05:08:04;;;;;;;31.47;16.70;;;14.10;91.40;;;;;;5038543;28;20211;-86
2021/09/02 05:10:30;;;;;;;34.07;16.53;;;14.10;91.40;;;;;;5038544;28;20176;-87
2021/09/02 05:12:56;;;;;;;26.20;15.87;;;14.10;91.30;;;;;;5056214;28;20663;-87
2021/09/02 05:15:21;;;;;;;30.33;16.03;;;14.20;91.20;;;;;;5038376;28;20183;-87
2021/09/02 05:17:48;;;;;;;39.00;17.23;;;14.20;91.10;;;;;;5038288;28;20180;-86
2021/09/02 05:20:14;;;;;;;31.20;17.40;;;14.20;91.10;;;;;;5038197;28;20184;-86
2021/09/02 05:22:41;;;;;;;30.50;17.23;;;14.10;91.10;;;;;;5055951;28;20571;-86
2021/09/02 05:25:08;;;;;;;28.73;16.27;;;14.00;91.20;;;;;;5038089;28;20602;-88
2021/09/02 05:27:34;;;;;;;33.97;16.70;;;14.20;91.20;;;;;;5037853;28;20204;-88
2021/09/02 05:30:01;;;;;;;31.43;17.03;;;14.20;91.20;;;;;;5038027;28;20187;-88
2021/09/02 05:32:27;;;;;;;36.43;16.83;;;14.20;91.00;;;;;;5038017;28;20292;-88
2021/09/02 05:34:52;;;;;;;32.80;17.00;;;14.20;91.00;;;;;;5037913;28;20211;-88
2021/09/02 05:37:18;;;;;;;27.80;15.97;;;14.30;91.00;;;;;;5037917;28;20629;-88
2021/09/02 05:39:43;;;;;;;28.07;15.83;;;14.30;91.00;;;;;;5037861;28;20621;-88
2021/09/02 05:42:11;;;;;;;31.97;16.73;;;14.30;91.00;;;;;;5055509;28;20228;-88
2021/09/02 05:44:36;;;;;;;31.83;17.23;;;14.30;90.90;;;;;;5037624;28;20184;-88
2021/09/02 05:47:02;;;;;;;33.77;16.43;;;14.30;91.10;;;;;;5037638;28;20691;-88
2021/09/02 05:49:28;;;;;;;29.60;17.33;;;14.30;91.20;;;;;;5037718;28;20180;-88
2021/09/02 05:51:54;;;;;;;25.37;15.47;;;14.50;91.20;;;;;;5055396;28;20552;-88
2021/09/02 05:54:19;;;;;;;31.27;15.93;;;14.50;91.20;;;;;;5054857;28;20172;-88
2021/09/02 05:56:45;;;;;;;31.45;16.20;;;14.40;91.10;;;;;;5055594;28;20167;-88
2021/09/02 05:59:11;;;;;;;29.20;15.75;;;14.40;91.10;;;;;;5037574;28;20177;-89
2021/09/02 06:01:37;;;;;;;31.10;15.38;;;14.50;91.10;;;;;;5037357;28;20290;-89
2021/09/02 06:04:02;;;;;;;31.75;16.23;;;14.50;91.00;;;;;;5037393;28;20271;-88
2021/09/02 06:06:28;;;;;;;34.17;14.95;;;14.60;91.00;;;;;;5055079;28;20235;-86
2021/09/02 06:08:54;;;;;;;32.92;16.92;;;14.50;90.80;;;;;;5037322;28;20226;-88
2021/09/02 06:11:20;;;;;;;35.17;17.88;;;14.50;90.90;;;;;;5037483;28;20224;-88
2021/09/02 06:13:46;;;;;;;30.75;16.33;;;14.60;91.00;;;;;;5037215;28;20683;-88
2021/09/02 06:16:11;;;;;;;26.60;15.45;;;14.60;91.20;;;;;;5055275;28;20195;-88
2021/09/02 06:18:37;;;;;;;28.00;14.93;;;14.60;91.10;;;;;;5054929;28;20218;-88
2021/09/02 06:21:03;;;;;;;24.15;15.23;;;14.70;91.00;;;;;;5037353;28;20218;-88
2021/09/02 06:23:28;;;;;;;31.00;16.67;;;14.70;90.80;;;;;;5037066;28;20180;-88
2021/09/02 06:25:54;;;;;;;28.63;15.73;;;14.70;90.90;;;;;;5036912;28;20176;-88
2021/09/02 06:28:20;;;;;;;30.23;15.73;;;14.80;90.90;;;;;;5054651;28;20671;-88
2021/09/02 06:30:46;;;;;;;32.00;17.77;;;14.80;90.80;;;;;;5054641;28;20628;-88
2021/09/02 06:33:11;;;;;;;26.03;16.93;;;14.70;91.10;;;;;;5054924;28;20172;-88
2021/09/02 06:35:37;;;;;;;36.03;16.65;;;14.70;91.20;;;;;;5036727;28;20180;-88
2021/09/02 06:38:04;;;;;;;26.33;16.17;;;14.70;91.20;;;;;;5036930;28;20180;-88
2021/09/02 06:40:30;;;;;;;39.57;16.67;;;14.80;91.20;;;;;;5036690;28;20230;-88
2021/09/02 06:42:56;;;;;;;36.85;19.33;;;14.70;91.10;;;;;;5036566;28;20571;-88
2021/09/02 06:45:21;;;;;;;31.08;17.65;;;14.60;91.10;;;;;;5036731;28;20271;-88
2021/09/02 06:47:47;;;;;;;31.08;17.08;;;14.70;91.20;;;;;;5036534;28;20200;-88
2021/09/02 06:50:13;;;;;;;28.67;16.50;;;14.80;91.20;;;;;;5036842;28;20180;-88
2021/09/02 06:52:42;;;;;;;26.85;17.10;;;14.80;91.10;;;;;;5036416;28;20215;-88
2021/09/02 06:55:09;;;;;;;30.33;17.27;;;14.90;91.10;;;;;;5036423;28;20176;-88
2021/09/02 06:57:35;;;;;;;29.30;17.88;;;14.90;91.30;;;;;;5036440;28;20594;-88
2021/09/02 07:00:01;;;;;;;36.38;18.48;;;14.90;91.30;;;;;;5054199;28;20180;-89
2021/09/02 07:02:27;;;;;;;32.90;16.38;;;15.00;91.00;;;;;;5053982;28;20203;-88
2021/09/02 07:04:52;;;;;;;34.90;16.20;;;14.90;90.90;;;;;;5036272;28;20188;-88
2021/09/02 07:07:18;;;;;;;27.33;16.83;;;14.90;90.50;;;;;;5035291;28;20636;-88
2021/09/02 07:09:44;;;;;;;34.65;16.45;;;15.00;90.70;;;;;;5053946;28;20254;-89
2021/09/02 07:12:10;;;;;;;26.40;16.15;;;15.00;90.70;;;;;;5036422;28;20287;-88
2021/09/02 07:14:35;;;;;;;28.52;15.48;;;15.10;90.70;;;;;;5036113;28;20222;-88
2021/09/02 07:17:01;;;;;;;34.25;17.13;;;15.20;90.70;;;;;;5036011;28;20548;-88
2021/09/02 07:19:27;;;;;;;23.77;14.90;;;15.20;90.60;;;;;;5037029;28;20199;-88
2021/09/02 07:21:53;;;;;;;29.00;15.32;;;15.30;90.50;;;;;;5036239;28;20206;-87
2021/09/02 07:24:19;;;;;;;32.72;16.02;;;15.30;90.50;;;;;;5053723;28;20179;-88
2021/09/02 07:26:45;;;;;;;29.25;15.13;;;15.30;90.10;;;;;;5035779;28;20204;-88
2021/09/02 07:29:10;;;;;;;29.98;16.98;;;15.30;90.20;;;;;;5035974;28;20266;-88
2021/09/02 07:31:39;;;;;;;32.55;16.00;;;15.30;90.30;;;;;;5054036;28;20668;-88
2021/09/02 07:34:05;;;;;;;30.70;15.23;;;15.30;90.10;;;;;;5053887;28;20176;-88
2021/09/02 07:36:31;;;;;;;29.30;15.95;;;15.30;90.00;;;;;;5036077;28;20168;-88
2021/09/02 07:38:57;;;;;;;29.70;14.82;;;15.40;90.10;;;;;;5035825;28;20176;-88
2021/09/02 07:41:23;;;;;;;31.75;15.00;;;15.40;89.90;;;;;;5035681;28;20202;-88
2021/09/02 07:43:49;;;;;;;26.13;14.50;;;15.50;90.00;;;;;;5035750;28;20187;-88
2021/09/02 07:46:14;;;;;;;30.15;14.75;;;15.60;89.80;;;;;;5053759;28;20172;-88
2021/09/02 07:48:41;;;;;;;25.48;15.23;;;15.50;89.60;;;;;;5035733;28;20271;-88
2021/09/02 07:51:07;;;;;;;30.75;14.20;;;15.50;89.60;;;;;;5035503;28;20596;-88
2021/09/02 07:53:33;;;;;;;31.38;16.15;;;15.50;89.50;;;;;;5053691;28;20591;-88
2021/09/02 07:55:59;;;;;;;29.67;15.98;;;15.50;89.60;;;;;;5035581;28;20210;-88
2021/09/02 07:58:25;;;;;;;30.98;17.17;;;15.50;89.30;;;;;;5036406;28;20237;-88
2021/09/02 08:00:51;;;;;;;42.10;22.88;;;15.30;89.50;;;;;;5053198;28;20168;-88
2021/09/02 08:03:16;;;;;;;38.92;18.23;;;15.50;89.70;;;;;;5035503;28;20191;-88
2021/09/02 08:05:42;;;;;;;30.48;15.50;;;15.60;89.90;;;;;;5035499;28;20176;-87
2021/09/02 08:08:08;;;;;;;28.17;15.18;;;15.60;89.50;;;;;;5053475;28;20196;-88
2021/09/02 08:10:34;;;;;;;31.50;15.85;;;15.70;89.40;;;;;;5035344;28;20254;-88
2021/09/02 08:12:59;;;;;;;25.63;15.02;;;15.60;88.80;;;;;;5035306;28;20196;-88
2021/09/02 08:15:26;;;;;;;35.65;17.65;;;15.70;88.90;;;;;;5035456;28;20179;-88
2021/09/02 08:17:52;;;;;;;29.60;15.02;;;15.70;89.00;;;;;;5036669;28;20186;-88
2021/09/02 08:20:20;;;;;;;24.90;13.50;;;15.80;89.20;;;;;;5039459;28;20239;-88
2021/09/02 08:22:46;;;;;;;25.00;14.32;;;15.90;88.60;;;;;;5039599;28;20200;-88
2021/09/02 08:25:13;;;;;;;23.73;12.93;;;16.00;88.70;;;;;;5039382;28;20176;-88
2021/09/02 08:27:39;;;;;;;23.92;12.75;;;16.10;88.10;;;;;;5039416;28;20200;-88
2021/09/02 08:30:07;;;;;;;24.52;14.10;;;16.20;88.10;;;;;;5039400;28;20701;-88
2021/09/02 08:32:33;;;;;;;21.13;12.63;;;16.30;88.40;;;;;;5057148;28;20234;-88
2021/09/02 08:34:59;;;;;;;25.42;12.02;;;16.40;88.40;;;;;;5039511;28;20203;-88
2021/09/02 08:37:24;;;;;;;24.70;11.48;;;16.50;88.20;;;;;;5056918;28;20259;-88
2021/09/02 08:39:51;;;;;;;23.00;12.45;;;16.50;87.20;;;;;;5039132;28;20184;-87
2021/09/02 08:42:17;;;;;;;23.70;11.90;;;16.30;85.80;;;;;;5039372;28;20195;-88
2021/09/02 08:44:44;;;;;;;29.58;12.60;;;16.30;86.10;;;;;;5038979;28;20215;-88
2021/09/02 08:47:11;;;;;;;31.58;12.63;;;16.40;86.00;;;;;;5057000;28;20278;-88
2021/09/02 08:49:38;;;;;;;23.80;12.20;;;16.60;86.70;;;;;;5038824;28;20520;-88
2021/09/02 08:52:05;;;;;;;21.92;10.80;;;16.70;86.40;;;;;;5038828;28;20616;-89
2021/09/02 08:54:33;;;;;;;21.10;10.68;;;16.70;86.20;;;;;;5057124;28;20180;-88
2021/09/02 08:56:59;;;;;;;25.08;10.73;;;16.60;84.60;;;;;;5056991;28;20176;-88
2021/09/02 08:59:25;;;;;;;25.63;10.80;;;16.70;85.20;;;;;;5038896;28;20210;-88
2021/09/02 09:01:51;;;;;;;19.65;9.90;;;16.80;85.50;;;;;;5056843;28;20245;-88
2021/09/02 09:04:17;;;;;;;19.20;9.50;;;16.90;84.50;;;;;;5039049;28;20212;-89
2021/09/02 09:06:44;;;;;;;19.67;10.85;;;17.00;85.00;;;;;;5038779;28;20208;-88
2021/09/02 09:09:14;;;;;;;19.35;9.43;;;16.80;84.50;;;;;;5038759;28;20255;-88
2021/09/02 09:11:48;;;;;;;23.08;9.20;;;16.80;83.70;;;;;;5038923;28;20199;-89
2021/09/02 09:14:16;;;;;;;15.68;8.73;;;16.90;82.80;;;;;;5056972;28;20187;-88
2021/09/02 09:16:45;;;;;;;21.90;9.30;;;16.60;83.30;;;;;;5039153;28;20176;-88
2021/09/02 09:19:31;;;;;;;20.45;9.48;;;16.80;83.60;;;;;;5039173;28;20263;-89
2021/09/02 09:21:58;;;;;;;16.80;7.95;;;16.70;82.20;;;;;;5038710;28;20283;-88
2021/09/02 09:24:42;;;;;;;17.20;7.60;;;16.70;82.20;;;;;;5038840;28;20313;-89
2021/09/02 09:27:08;;;;;;;19.55;8.00;;;16.90;82.80;;;;;;5039148;28;20200;-89
2021/09/02 09:29:33;;;;;;;16.83;7.82;;;17.10;81.90;;;;;;5037616;28;20168;-89
2021/09/02 09:32:11;;;;;;;12.48;6.32;;;17.10;81.80;;;;;;5038211;28;20192;-89
2021/09/02 09:34:37;;;;;;;14.07;6.68;;;17.20;80.50;;;;;;5056378;28;20156;-89
2021/09/02 09:37:11;;;;;;;14.95;6.90;;;17.30;80.80;;;;;;5039179;28;20584;-88
2021/09/02 09:39:37;;;;;;;16.52;6.88;;;17.30;80.50;;;;;;5038117;28;20168;-89
2021/09/02 09:42:06;;;;;;;18.00;7.60;;;17.30;81.60;;;;;;5038223;28;20233;-88
2021/09/02 09:44:32;;;;;;;17.58;6.57;;;17.50;80.90;;;;;;5055947;28;20175;-88
2021/09/02 09:47:13;;;;;;;15.05;6.28;;;17.50;78.80;;;;;;5056186;28;20245;-88
2021/09/02 09:49:44;;;;;;;11.85;5.75;;;17.60;79.60;;;;;;5037913;28;20644;-88
2021/09/02 09:52:33;;;;;;;20.10;6.28;;;17.60;79.40;;;;;;5037985;28;20662;-88
2021/09/02 09:55:08;;;;;;;17.58;6.40;;;17.70;79.30;;;;;;5055757;28;20160;-89
2021/09/02 09:57:35;;;;;;;15.90;6.15;;;17.80;79.00;;;;;;5037761;28;20267;-89
2021/09/02 10:00:08;;;;;;;15.25;6.88;;;17.50;78.80;;;;;;5037754;28;20180;-89
2021/09/02 10:02:44;;;;;;;17.10;6.38;;;17.40;79.20;;;;;;5056261;28;20199;-89
2021/09/02 10:05:13;;;;;;;18.52;6.53;;;17.50;79.80;;;;;;5037647;28;20176;-89
2021/09/02 10:07:41;;;;;;;19.83;6.18;;;17.30;79.20;;;;;;5037466;28;20200;-89
2021/09/02 10:10:11;;;;;;;15.48;6.63;;;17.30;79.20;;;;;;5037904;28;20226;-89
2021/09/02 10:12:37;;;;;;;15.25;5.68;;;17.30;79.00;;;;;;5037651;28;20262;-89
2021/09/02 10:15:06;;;;;;;15.23;5.90;;;17.50;78.50;;;;;;5055399;28;20218;-89
2021/09/02 10:17:33;;;;;;;12.48;5.95;;;17.50;78.40;;;;;;5038082;28;20180;-89
2021/09/02 10:20:02;;;;;;;15.77;6.22;;;17.40;79.00;;;;;;5037693;28;20318;-89
2021/09/02 10:22:28;;;;;;;12.80;5.60;;;17.50;78.50;;;;;;5055170;28;20200;-89
2021/09/02 10:24:54;;;;;;;17.02;6.55;;;17.60;78.50;;;;;;5037627;28;20176;-89
2021/09/02 10:27:23;;;;;;;19.98;6.22;;;17.60;78.20;;;;;;5055190;28;20199;-90
2021/09/02 10:29:50;;;;;;;18.25;6.07;;;17.60;78.10;;;;;;5037626;28;20658;-89
2021/09/02 10:32:28;;;;;;;13.70;5.78;;;17.70;78.20;;;;;;5055078;28;20270;-90
2021/09/02 10:35:02;;;;;;;16.90;6.20;;;17.50;77.40;;;;;;5054670;28;20168;-89
2021/09/02 10:37:34;;;;;;;15.95;5.80;;;17.50;78.80;;;;;;5037330;28;20183;-89
2021/09/02 10:40:01;;;;;;;20.60;7.22;;;17.70;78.80;;;;;;5036771;28;20176;-89
2021/09/02 10:42:44;;;;;;;22.13;6.78;;;17.60;78.30;;;;;;5054878;28;20199;-89
2021/09/02 10:45:25;;;;;;;13.63;6.10;;;17.70;77.40;;;;;;5036924;28;20179;-89
2021/09/02 10:47:56;;;;;;;16.80;6.30;;;17.70;77.10;;;;;;5054815;28;20285;-89
2021/09/02 10:50:23;;;;;;;20.08;6.28;;;17.80;77.20;;;;;;5036890;28;20664;-89
2021/09/02 10:52:50;;;;;;;20.55;6.70;;;17.70;78.00;;;;;;5036844;28;20211;-89
2021/09/02 10:55:27;;;;;;;19.85;6.88;;;17.80;77.40;;;;;;5036884;28;20174;-89
2021/09/02 10:57:52;;;;;;;12.75;6.68;;;17.80;78.00;;;;;;5054348;28;20175;-89
2021/09/02 11:00:44;;;;;;;15.55;6.43;;;17.80;77.90;;;;;;5036644;28;20176;-89
2021/09/02 11:03:19;;;;;;;15.02;6.40;;;17.90;78.00;;;;;;5033293;28;20191;-89
2021/09/02 11:05:56;;;;;;;18.65;6.50;;;17.90;77.70;;;;;;5036367;28;20186;-89
2021/09/02 11:08:48;;;;;;;13.57;6.65;;;17.90;78.10;;;;;;5054554;28;20184;-89
2021/09/02 11:11:15;;;;;;;17.60;7.50;;;18.00;76.90;;;;;;5032469;28;20210;-89
2021/09/02 11:13:42;;;;;;;17.02;6.30;;;18.10;77.60;;;;;;5037032;28;20704;-89
2021/09/02 11:16:12;;;;;;;19.63;6.35;;;18.20;77.30;;;;;;5036100;28;20180;-89
2021/09/02 11:18:55;;;;;;;15.63;6.30;;;18.20;76.60;;;;;;5036057;28;20674;-89
2021/09/02 11:21:24;;;;;;;15.75;6.50;;;18.20;76.00;;;;;;5053959;28;20196;-89
2021/09/02 11:24:04;;;;;;;20.10;6.65;;;18.20;77.50;;;;;;5036078;28;20262;-89
2021/09/02 11:26:38;;;;;;;16.45;6.20;;;18.30;76.10;;;;;;5054389;28;20159;-89
2021/09/02 11:29:05;;;;;;;18.20;6.40;;;18.20;75.20;;;;;;5036823;28;20172;-89
2021/09/02 11:31:31;;;;;;;15.73;6.28;;;18.20;76.20;;;;;;5036961;28;20241;-89
2021/09/02 11:33:59;;;;;;;16.17;6.60;;;18.30;75.80;;;;;;5035837;28;20176;-89
2021/09/02 11:36:26;;;;;;;15.23;7.10;;;18.20;76.50;;;;;;5035854;28;20178;-89
2021/09/02 11:39:08;;;;;;;18.50;6.72;;;18.20;77.00;;;;;;5035786;28;20177;-89
2021/09/02 11:41:34;;;;;;;20.15;7.85;;;17.70;76.80;;;;;;5053629;28;20608;-89
2021/09/02 11:44:01;;;;;;;20.05;7.72;;;17.80;77.30;;;;;;5036380;28;20168;-89
2021/09/02 11:46:27;;;;;;;14.75;7.18;;;18.00;76.30;;;;;;5035619;28;20660;-89
2021/09/02 11:48:56;;;;;;;18.95;8.10;;;18.10;77.50;;;;;;5036110;28;20179;-89
2021/09/02 11:51:28;;;;;;;16.70;7.22;;;18.20;77.20;;;;;;5035760;28;20616;-89
2021/09/02 11:54:10;;;;;;;17.35;7.13;;;18.10;76.90;;;;;;5035123;28;20255;-89
2021/09/02 11:56:38;;;;;;;18.80;6.20;;;18.20;77.60;;;;;;5035505;28;20192;-89
2021/09/02 11:59:05;;;;;;;12.15;6.10;;;18.30;77.30;;;;;;5035705;28;20226;-89
2021/09/02 12:01:32;;;;;;;18.42;8.05;;;18.40;76.40;;;;;;5035414;28;20200;-89
2021/09/02 12:03:57;;;;;;;11.90;6.18;;;18.30;75.50;;;;;;5035753;28;20171;-89
2021/09/02 12:06:29;;;;;;;16.95;6.72;;;18.40;72.90;;;;;;5053563;28;20168;-89
2021/09/02 12:08:58;;;;;;;22.20;6.50;;;18.40;75.20;;;;;;5035461;28;20225;-89
2021/09/02 12:11:24;;;;;;;19.88;6.93;;;18.50;75.30;;;;;;5035756;28;20196;-90
2021/09/02 12:13:52;;;;;;;15.77;5.75;;;18.70;74.80;;;;;;5035821;28;20176;-89
2021/09/02 12:16:19;;;;;;;13.60;5.95;;;18.80;74.20;;;;;;5035839;28;20175;-89
2021/09/02 12:18:47;;;;;;;16.92;6.05;;;19.00;73.80;;;;;;5035539;28;20176;-89
2021/09/02 12:21:21;;;;;;;15.73;6.47;;;19.10;72.50;;;;;;5053485;28;20215;-89
2021/09/02 12:23:54;;;;;;;17.70;6.70;;;18.80;71.80;;;;;;5035378;28;20172;-88
2021/09/02 12:26:22;;;;;;;13.20;6.00;;;18.90;73.00;;;;;;5053300;28;20168;-88
2021/09/02 12:28:50;;;;;;;17.73;6.20;;;19.10;71.90;;;;;;5036017;28;20208;-88
2021/09/02 12:31:23;;;;;;;19.10;5.75;;;19.00;70.80;;;;;;5035201;28;20195;-88